Latest Weather Observations for Julia Creek

IDQ60801

Issued at 1:32 pm EST Tuesday 28 July 2015 (issued every 30 minutes, with the page automatically refreshed every 10 minutes)

About weather observations | Map of weather stations | Latest weather observations for QLD | Other Formats
Station Details ID: 029058 Name: JULIA CREEK AIRPORT Lat: -20.67 Lon: 141.72 Height: 122.5 m
Data from the previous 72 hours. | See also: Recent months at Julia Creek
Date/Time
EST
Temp
°C
App
Temp
°C
Dew
Point
Rel
Hum
%
Delta-T
°C
Wind Press
QNH
hPa
Press
MSL
hPa
Rain
since 9 am
mm
Dir
 
Spd
km/h
Gust
km/h
Spd
kts
Gust
kts
28/01:30pm 25.5 18.3 5.1 27 10.4 SE 32 48 17 26 1023.3 1023.0 0.0
28/01:00pm 24.8 17.4 5.1 28 10.0 SE 33 48 18 26 1023.9 1023.7 0.0
28/12:30pm 23.8 16.1 5.2 30 9.4 SE 35 46 19 25 1024.3 1024.1 0.0
28/12:00pm 23.4 15.2 4.9 30 9.2 SE 37 50 20 27 1024.8 1024.6 0.0
28/11:30am 22.3 14.4 4.4 31 8.8 SE 35 50 19 27 1025.3 1025.1 0.0
28/11:00am 22.1 14.0 5.1 33 8.4 SE 37 48 20 26 1025.8 1025.6 0.0
28/10:30am 20.7 12.1 4.7 35 7.8 SE 39 48 21 26 1026.0 1025.8 0.0
28/10:00am 19.6 11.4 4.5 37 7.3 SE 37 50 20 27 1026.2 1026.0 0.0
28/09:30am 18.4 9.8 4.6 40 6.6 SE 39 48 21 26 1026.4 1026.2 0.0
28/09:00am 17.5 8.5 4.5 42 6.2 SE 41 54 22 29 1026.2 1026.0 0.0
28/08:30am 16.9 7.9 4.3 43 6.0 SSE 41 50 22 27 1025.9 1025.7 0.0
28/08:00am 16.4 8.5 4.1 44 5.7 SSE 35 46 19 25 1025.8 1025.6 0.0
28/07:30am 16.0 8.9 3.8 44 5.6 SSE 30 41 16 22 1025.5 1025.3 0.0
28/07:00am 15.5 9.1 3.3 44 5.6 SSE 26 35 14 19 1025.1 1024.9 0.0
28/06:30am 15.4 9.3 2.9 43 5.7 SSE 24 32 13 17 1024.9 1024.7 0.0
28/06:00am 15.4 9.7 2.6 42 5.7 SSE 22 28 12 15 1024.8 1024.6 0.0
28/05:30am 15.7 9.9 2.5 41 6.0 SSE 22 28 12 15 1024.5 1024.3 0.0
28/05:00am 15.9 10.4 2.0 39 6.2 SSE 20 26 11 14 1024.3 1024.1 0.0
28/04:30am 16.1 10.8 1.8 38 6.4 SSE 19 24 10 13 1024.4 1024.2 0.0
28/04:00am 16.1 11.0 1.0 36 6.6 SSE 17 20 9 11 1024.6 1024.4 0.0
28/03:30am 16.7 11.7 1.2 35 6.8 SSE 17 20 9 11 1024.3 1024.1 0.0
28/03:00am 17.5 11.9 1.1 33 7.3 SSE 20 28 11 15 1024.4 1024.2 0.0
28/02:30am 18.2 11.9 1.3 32 7.6 SSE 24 30 13 16 1024.4 1024.2 0.0
28/02:00am 18.8 12.5 1.3 31 7.9 SSE 24 33 13 18 1024.4 1024.2 0.0
28/01:30am 19.0 12.6 1.1 30 8.1 SSE 24 30 13 16 1024.6 1024.4 0.0
28/01:00am 19.2 12.8 1.2 30 8.1 SSE 24 33 13 18 1024.6 1024.4 0.0
28/12:30am 19.3 12.5 0.8 29 8.3 SSE 26 33 14 18 1024.8 1024.6 0.0
28/12:00am 19.5 13.1 1.0 29 8.3 S 24 33 13 18 1025.0 1024.8 0.0
 
Date/Time
EST
Temp
°C
App
Temp
°C
Dew
Point
Rel
Hum
%
Delta-T
°C
Wind Press
QNH
hPa
Press
MSL
hPa
Rain
since 9 am
mm
Dir
 
Spd
km/h
Gust
km/h
Spd
kts
Gust
kts
27/11:30pm 19.7 13.0 1.2 29 8.4 S 26 33 14 18 1025.0 1024.8 0.0
27/11:00pm 20.0 13.2 1.0 28 8.6 S 26 33 14 18 1025.2 1025.0 0.0
27/10:30pm 20.2 13.4 0.6 27 8.8 SSE 26 33 14 18 1025.2 1025.0 0.0
27/10:00pm 20.1 13.9 0.0 26 8.9 S 22 28 12 15 1025.1 1024.9 0.0
27/09:30pm 20.1 14.5 0.0 26 8.9 S 19 24 10 13 1025.3 1025.1 0.0
27/09:00pm 20.2 14.6 0.1 26 8.9 S 19 24 10 13 1025.5 1025.3 0.0
27/08:30pm 20.1 14.9 0.0 26 8.9 SSE 17 20 9 11 1025.1 1024.9 0.0
27/08:00pm 20.8 15.2 0.1 25 9.2 SSE 19 22 10 12 1024.8 1024.6 0.0
27/07:30pm 21.3 16.5 -0.1 24 9.5 SSE 15 20 8 11 1024.4 1024.2 0.0
27/07:00pm 22.7 16.9 -0.1 22 10.3 SSE 20 28 11 15 1023.8 1023.6 0.0
27/06:30pm 23.6 16.3 0.0 21 10.8 SSE 28 37 15 20 1023.5 1023.2 0.0
27/06:00pm 24.2 16.5 -0.2 20 11.1 SSE 30 43 16 23 1023.1 1022.8 0.0
27/05:30pm 24.6 16.4 0.2 20 11.3 SSE 33 43 18 23 1022.6 1022.3 0.0
27/05:00pm 25.1 16.6 0.6 20 11.4 SSE 35 44 19 24 1022.6 1022.3 0.0
27/04:30pm 25.9 17.1 1.2 20 11.8 SSE 37 46 20 25 1022.1 1021.9 0.0
27/04:00pm 26.3 17.0 0.9 19 12.0 SSE 39 46 21 25 1021.8 1021.6 0.0
27/03:30pm 27.1 19.1 1.5 19 12.4 SSE 33 43 18 23 1021.7 1021.5 0.0
27/03:00pm 27.1 19.2 0.8 18 12.5 SSE 32 43 17 23 1021.8 1021.6 0.0
27/02:30pm 27.3 19.5 1.7 19 12.4 SSE 32 44 17 24 1021.9 1021.7 0.0
27/02:00pm 26.8 18.7 1.3 19 12.2 SSE 33 43 18 23 1022.7 1022.4 0.0
27/01:30pm 25.8 17.9 1.2 20 11.7 SSE 32 44 17 24 1023.3 1023.0 0.0
27/01:19pm 26.3 18.3 1.6 20 11.9 SSE 33 52 18 28 1023.6 1023.3 0.0
27/01:00pm 25.6 17.5 1.0 20 11.6 SE 33 46 18 25 1024.0 1023.8 0.0
27/12:30pm 25.5 17.5 1.6 21 11.4 SE 33 46 18 25 1024.4 1024.2 0.0
27/12:00pm 23.8 15.0 1.4 23 10.5 SE 37 46 20 25 1024.9 1024.7 0.0
27/11:30am 23.6 14.5 1.9 24 10.3 SE 39 48 21 26 1025.4 1025.2 0.0
27/11:00am 22.9 14.6 1.9 25 9.9 SE 35 44 19 24 1025.9 1025.7 0.0
27/10:30am 22.5 14.6 2.1 26 9.6 SE 33 43 18 23 1026.4 1026.2 0.0
27/10:00am 21.3 13.0 2.1 28 8.9 SSE 35 44 19 24 1026.6 1026.4 0.0
27/09:30am 20.9 13.0 2.2 29 8.7 SSE 33 41 18 22 1026.5 1026.3 0.0
27/09:00am 20.6 12.8 2.9 31 8.3 SSE 33 41 18 22 1026.2 1026.0 0.0
27/08:30am 19.3 13.3 3.1 34 7.6 SSE 24 30 13 16 1025.9 1025.7 0.0
27/08:00am 18.4 13.1 3.1 36 7.1 SSE 20 28 11 15 1025.5 1025.3 0.0
27/07:30am 18.0 13.2 2.7 36 7.1 S 17 20 9 11 1025.3 1025.1 0.0
27/07:00am 18.3 13.5 2.6 35 7.2 SSE 17 20 9 11 1024.9 1024.7 0.0
27/06:30am 18.7 13.5 2.5 34 7.5 SSE 19 24 10 13 1024.4 1024.2 0.0
27/06:00am 19.2 14.1 3.0 34 7.6 SSE 19 24 10 13 1024.3 1024.1 0.0
27/05:30am 19.4 14.6 2.7 33 7.8 SSE 17 22 9 12 1023.8 1023.6 0.0
27/05:00am 19.3 14.2 3.1 34 7.6 SSE 19 24 10 13 1023.6 1023.3 0.0
27/04:30am 19.5 14.7 2.8 33 7.8 SSE 17 24 9 13 1023.6 1023.3 0.0
27/04:00am 19.9 14.3 3.2 33 7.9 SSE 22 28 12 15 1023.5 1023.2 0.0
27/03:30am 19.9 15.3 3.6 34 7.8 SSE 17 22 9 12 1023.5 1023.2 0.0
27/03:00am 19.6 14.9 3.3 34 7.7 SSE 17 22 9 12 1023.3 1023.0 0.0
27/02:30am 19.3 14.2 3.1 34 7.6 SSE 19 24 10 13 1023.2 1022.9 0.0
27/02:00am 19.7 14.6 3.0 33 7.8 SSE 19 20 10 11 1023.3 1023.0 0.0
27/01:30am 20.3 15.0 3.1 32 8.1 SSE 20 28 11 15 1023.3 1023.0 0.0
27/01:00am 20.5 15.4 2.8 31 8.3 SSE 19 24 10 13 1023.2 1022.9 0.0
27/12:30am 20.6 15.3 2.9 31 8.4 SSE 20 24 11 13 1022.9 1022.6 0.0
27/12:00am 20.3 15.1 2.6 31 8.3 S 19 24 10 13 1022.8 1022.5 0.0
 
Date/Time
EST
Temp
°C
App
Temp
°C
Dew
Point
Rel
Hum
%
Delta-T
°C
Wind Press
QNH
hPa
Press
MSL
hPa
Rain
since 9 am
mm
Dir
 
Spd
km/h
Gust
km/h
Spd
kts
Gust
kts
26/11:30pm 20.8 15.4 2.6 30 8.6 S 20 26 11 14 1022.7 1022.4 0.0
26/11:00pm 21.3 15.9 2.6 29 8.8 S 20 26 11 14 1022.8 1022.5 0.0
26/10:30pm 22.0 16.4 3.2 29 9.0 S 22 30 12 16 1022.5 1022.2 0.0
26/10:00pm 22.4 16.3 3.0 28 9.3 S 24 32 13 17 1022.1 1021.9 0.0
26/09:30pm 22.9 16.9 3.4 28 9.5 S 24 30 13 16 1022.0 1021.8 0.0
26/09:00pm 23.4 17.5 3.9 28 9.6 S 24 30 13 16 1021.8 1021.6 0.0
26/08:30pm 24.1 18.7 4.5 28 9.8 S 22 30 12 16 1021.7 1021.5 0.0
26/08:00pm 24.9 19.5 4.6 27 10.2 S 22 28 12 15 1021.4 1021.2 0.0
26/07:30pm 25.7 20.1 5.3 27 10.5 S 24 30 13 16 1020.8 1020.6 0.0
26/07:00pm 26.9 21.0 5.8 26 11.0 S 26 33 14 18 1020.2 1020.0 0.0
26/06:30pm 27.9 21.7 6.1 25 11.5 S 28 37 15 20 1019.6 1019.4 0.0
26/06:00pm 29.5 23.6 7.4 25 12.0 S 28 37 15 20 1018.9 1018.7 0.0
26/05:30pm 30.6 24.7 7.7 24 12.6 S 28 35 15 19 1018.3 1018.1 0.0
26/05:00pm 31.5 26.1 7.9 23 13.0 SSE 26 35 14 19 1018.0 1017.8 0.0
26/04:30pm 31.7 25.5 8.0 23 13.1 S 30 39 16 21 1017.6 1017.4 0.0
26/04:00pm 32.2 26.9 8.4 23 13.3 S 26 37 14 20 1017.6 1017.4 0.0
26/03:30pm 32.4 27.7 9.2 24 13.2 SSE 24 35 13 19 1017.6 1017.4 0.0
26/03:00pm 32.3 27.4 9.8 25 12.9 S 26 39 14 21 1017.6 1017.4 0.0
26/02:30pm 31.3 27.0 10.6 28 11.9 SSE 24 32 13 17 1018.0 1017.8 0.0
26/02:00pm 30.8 26.9 10.7 29 11.6 SSE 22 30 12 16 1018.4 1018.2 0.0
26/01:30pm 30.3 26.4 10.8 30 11.2 SSE 22 35 12 19 1018.8 1018.6 0.0
26/01:00pm 30.1 26.8 11.6 32 10.8 SSE 20 30 11 16 1019.5 1019.3 0.0
26/12:30pm 29.2 25.1 11.3 33 10.3 SSE 24 33 13 18 1020.0 1019.8 0.0
26/12:00pm 28.2 24.3 10.9 34 9.9 SE 22 32 12 17 1020.5 1020.3 0.0
26/11:30am 27.6 23.3 10.8 35 9.6 SE 24 30 13 16 1021.1 1020.9 0.0
26/11:00am 26.5 22.2 10.6 37 8.9 SE 24 35 13 19 1021.7 1021.5 0.0
26/10:30am 24.8 20.1 10.7 41 7.9 SE 26 35 14 19 1021.9 1021.7 0.0
26/10:00am 24.3 18.8 10.6 42 7.6 SE 30 35 16 19 1021.9 1021.7 0.0
26/09:30am 22.7 17.1 10.2 45 6.9 SE 30 37 16 20 1022.0 1021.8 0.0
26/09:00am 20.9 15.8 9.2 47 6.2 SSE 26 33 14 18 1021.7 1021.5 0.0
26/08:30am 19.6 14.7 8.6 49 5.8 SSE 24 30 13 16 1021.4 1021.2 0.0
26/08:00am 18.4 14.7 7.8 50 5.4 S 17 22 9 12 1020.9 1020.7 0.0
26/07:30am 17.2 13.7 7.0 51 5.1 S 15 19 8 10 1020.7 1020.5 0.0
26/07:00am 17.1 13.9 6.9 51 5.1 S 13 17 7 9 1020.5 1020.3 0.0
26/06:30am 17.2 14.0 6.7 50 5.2 S 13 17 7 9 1020.4 1020.2 0.0
26/06:00am 17.0 14.0 6.2 49 5.3 S 11 15 6 8 1019.8 1019.6 0.0
26/05:30am 16.2 13.1 5.5 49 5.2 S 11 13 6 7 1019.7 1019.5 0.0
26/05:00am 16.9 13.8 5.5 47 5.5 S 11 13 6 7 1019.6 1019.4 0.0
26/04:30am 18.1 15.2 6.3 46 5.9 S 11 15 6 8 1019.6 1019.4 0.0
26/04:00am 18.7 15.0 6.5 45 6.1 S 15 19 8 10 1019.3 1019.1 0.0
26/03:30am 18.9 15.2 6.4 44 6.3 S 15 19 8 10 1019.2 1019.0 0.0
26/03:00am 19.4 15.7 6.5 43 6.5 S 15 17 8 9 1019.2 1019.0 0.0
26/02:30am 20.2 17.0 6.9 42 6.8 S 13 19 7 10 1019.3 1019.1 0.0
26/02:00am 20.8 17.3 7.1 41 7.0 S 15 20 8 11 1019.3 1019.1 0.0
26/01:30am 21.3 17.4 7.2 40 7.3 S 17 22 9 12 1019.3 1019.1 0.0
26/01:00am 21.8 17.4 6.5 37 7.8 S 19 22 10 12 1019.0 1018.8 0.0
26/12:30am 21.8 17.3 6.1 36 8.0 S 19 22 10 12 1018.9 1018.7 0.0
26/12:00am 22.2 17.6 5.6 34 8.3 S 19 22 10 12 1019.0 1018.8 0.0
 
Date/Time
EST
Temp
°C
App
Temp
°C
Dew
Point
Rel
Hum
%
Delta-T
°C
Wind Press
QNH
hPa
Press
MSL
hPa
Rain
since 9 am
mm
Dir
 
Spd
km/h
Gust
km/h
Spd
kts
Gust
kts
25/11:30pm 21.7 17.6 4.3 32 8.5 S 15 19 8 10 1019.2 1019.0 0.0
25/11:00pm 22.2 17.6 3.8 30 8.9 S 17 19 9 10 1019.1 1018.9 0.0
25/10:30pm 22.5 17.9 3.6 29 9.2 S 17 19 9 10 1019.0 1018.8 0.0
25/10:00pm 22.1 17.8 3.3 29 9.0 S 15 17 8 9 1018.9 1018.7 0.0
25/09:30pm 22.1 18.1 2.8 28 9.2 S 13 15 7 8 1018.7 1018.5 0.0
25/09:00pm 23.5 19.3 4.0 28 9.6 S 15 15 8 8 1018.5 1018.3 0.0
25/08:30pm 23.3 19.4 3.3 27 9.7 S 13 13 7 7 1018.1 1017.9 0.0
25/08:00pm 25.2 21.2 4.9 27 10.3 S 15 17 8 9 1017.7 1017.5 0.0
25/07:30pm 24.6 20.3 3.3 25 10.4 S 15 15 8 8 1017.3 1017.1 0.0
25/07:00pm 26.5 23.0 3.7 23 11.4 S 11 15 6 8 1016.8 1016.6 0.0
25/06:30pm 28.8 26.0 5.0 22 12.4 S 9 11 5 6 1016.6 1016.3 0.0
25/06:00pm 31.4 28.9 6.5 21 13.4 SSE 9 11 5 6 1016.3 1016.0 0.0
25/05:30pm 32.5 30.6 6.7 20 14.1 SE 6 9 3 5 1016.1 1015.8 0.0
25/05:00pm 33.2 32.0 6.5 19 14.6 ENE 2 9 1 5 1015.8 1015.5 0.0
25/04:30pm 33.3 32.1 6.6 19 14.6 S 2 9 1 5 1015.6 1015.3 0.0
25/04:00pm 33.5 32.0 6.7 19 14.7 SSW 4 13 2 7 1015.4 1015.1 0.0
25/03:30pm 32.9 30.9 6.2 19 14.5 ENE 6 13 3 7 1015.6 1015.3 0.0
25/03:00pm 32.6 30.0 6.0 19 14.3 S 9 17 5 9 1015.8 1015.5 0.0
25/02:30pm 32.6 29.8 5.2 18 14.6 SE 9 20 5 11 1016.3 1016.0 0.0
25/02:00pm 32.6 29.6 6.0 19 14.3 SE 11 20 6 11 1016.8 1016.6 0.0

Other Formats:

Comma delimited format used in spreadsheet applications
http://www.bom.gov.au/fwo/IDQ60801/IDQ60801.94337.axf

JavaScript Object Notation format (JSON) in row-major order
http://www.bom.gov.au/fwo/IDQ60801/IDQ60801.94337.json